sensor_id;sensor_type;location;lat;lon;timestamp;pressure;altitude;pressure_sealevel;temperature;humidity
21185;BME280;18176;49.502;11.754;2023-01-20T00:00:43;96231.47;;;5.81;56.81
21185;BME280;18176;49.502;11.754;2023-01-20T00:04:47;96233.88;;;5.89;56.63
21185;BME280;18176;49.502;11.754;2023-01-20T00:08:49;96229.72;;;6.00;56.30
21185;BME280;18176;49.502;11.754;2023-01-20T00:12:50;96172.47;;;5.59;56.19
21185;BME280;18176;49.502;11.754;2023-01-20T00:16:50;96230.94;;;5.97;56.37
21185;BME280;18176;49.502;11.754;2023-01-20T00:20:53;96240.28;;;5.93;56.59
21185;BME280;18176;49.502;11.754;2023-01-20T00:24:53;96237.94;;;5.85;56.93
21185;BME280;18176;49.502;11.754;2023-01-20T00:28:55;96258.53;;;5.88;57.18
21185;BME280;18176;49.502;11.754;2023-01-20T00:32:55;96261.75;;;5.90;56.99
21185;BME280;18176;49.502;11.754;2023-01-20T00:36:58;96256.44;;;5.97;56.63
21185;BME280;18176;49.502;11.754;2023-01-20T00:40:58;96252.13;;;5.84;56.87
21185;BME280;18176;49.502;11.754;2023-01-20T00:44:58;96257.38;;;5.84;56.99
21185;BME280;18176;49.502;11.754;2023-01-20T00:48:58;96269.16;;;5.75;57.64
21185;BME280;18176;49.502;11.754;2023-01-20T00:53:01;96258.19;;;5.85;57.05
21185;BME280;18176;49.502;11.754;2023-01-20T00:57:01;96275.19;;;5.76;57.62
21185;BME280;18176;49.502;11.754;2023-01-20T01:01:02;96275.00;;;5.77;57.38
21185;BME280;18176;49.502;11.754;2023-01-20T01:05:02;96278.44;;;5.78;57.69
21185;BME280;18176;49.502;11.754;2023-01-20T01:09:05;96285.50;;;5.77;57.59
21185;BME280;18176;49.502;11.754;2023-01-20T01:13:06;96297.38;;;5.86;57.28
21185;BME280;18176;49.502;11.754;2023-01-20T01:17:07;96289.53;;;5.80;57.33
21185;BME280;18176;49.502;11.754;2023-01-20T01:21:10;96298.94;;;5.94;57.18
21185;BME280;18176;49.502;11.754;2023-01-20T01:25:13;96294.16;;;5.84;57.26
21185;BME280;18176;49.502;11.754;2023-01-20T01:29:13;96305.66;;;5.83;57.42
21185;BME280;18176;49.502;11.754;2023-01-20T01:33:13;96307.13;;;5.79;57.41
21185;BME280;18176;49.502;11.754;2023-01-20T01:37:14;96311.53;;;5.85;57.41
21185;BME280;18176;49.502;11.754;2023-01-20T01:41:17;96314.00;;;5.80;57.52
21185;BME280;18176;49.502;11.754;2023-01-20T01:45:23;96247.16;;;5.45;57.37
21185;BME280;18176;49.502;11.754;2023-01-20T01:49:28;96257.50;;;5.40;57.64
21185;BME280;18176;49.502;11.754;2023-01-20T01:53:39;96301.09;;;5.72;57.48
21185;BME280;18176;49.502;11.754;2023-01-20T01:57:44;96325.25;;;5.87;57.55
21185;BME280;18176;49.502;11.754;2023-01-20T02:01:50;96313.16;;;5.86;57.32
21185;BME280;18176;49.502;11.754;2023-01-20T02:05:53;96317.19;;;5.89;57.48
21185;BME280;18176;49.502;11.754;2023-01-20T02:09:53;96297.16;;;5.88;57.07
21185;BME280;18176;49.502;11.754;2023-01-20T02:13:57;96315.81;;;6.04;57.07
21185;BME280;18176;49.502;11.754;2023-01-20T02:18:17;96332.03;;;6.01;57.02
21185;BME280;18176;49.502;11.754;2023-01-20T02:22:31;96324.72;;;6.03;56.89
21185;BME280;18176;49.502;11.754;2023-01-20T02:26:58;96331.66;;;5.98;57.08
21185;BME280;18176;49.502;11.754;2023-01-20T02:31:26;96321.50;;;6.01;56.91
21185;BME280;18176;49.502;11.754;2023-01-20T02:35:41;96317.88;;;6.02;56.98
21185;BME280;18176;49.502;11.754;2023-01-20T02:40:10;96317.13;;;5.95;57.22
21185;BME280;18176;49.502;11.754;2023-01-20T02:44:24;96308.66;;;5.93;57.21
21185;BME280;18176;49.502;11.754;2023-01-20T02:48:34;96315.59;;;5.81;57.55
21185;BME280;18176;49.502;11.754;2023-01-20T02:52:41;96303.59;;;5.92;57.63
21185;BME280;18176;49.502;11.754;2023-01-20T02:56:44;96307.91;;;5.86;57.84
21185;BME280;18176;49.502;11.754;2023-01-20T03:00:51;96296.97;;;5.89;57.75
21185;BME280;18176;49.502;11.754;2023-01-20T03:05:02;96302.28;;;5.76;57.80
21185;BME280;18176;49.502;11.754;2023-01-20T03:09:10;96301.34;;;5.95;57.55
21185;BME280;18176;49.502;11.754;2023-01-20T03:13:19;96306.38;;;5.97;57.45
21185;BME280;18176;49.502;11.754;2023-01-20T03:17:21;96306.88;;;5.87;57.82
21185;BME280;18176;49.502;11.754;2023-01-20T03:21:22;96314.75;;;5.87;57.78
21185;BME280;18176;49.502;11.754;2023-01-20T03:25:25;96313.38;;;5.85;57.75
21185;BME280;18176;49.502;11.754;2023-01-20T03:29:26;96278.09;;;5.43;58.20
21185;BME280;18176;49.502;11.754;2023-01-20T03:33:27;96325.00;;;5.71;58.31
21185;BME280;18176;49.502;11.754;2023-01-20T03:37:27;96321.78;;;5.62;58.53
21185;BME280;18176;49.502;11.754;2023-01-20T03:41:43;96328.16;;;5.79;58.20
21185;BME280;18176;49.502;11.754;2023-01-20T03:45:54;96331.66;;;5.73;58.30
21185;BME280;18176;49.502;11.754;2023-01-20T03:50:07;96336.63;;;5.81;58.02
21185;BME280;18176;49.502;11.754;2023-01-20T03:54:14;96325.47;;;5.61;58.19
21185;BME280;18176;49.502;11.754;2023-01-20T03:58:24;96272.78;;;5.18;58.13
21185;BME280;18176;49.502;11.754;2023-01-20T04:02:27;96342.34;;;5.72;58.33
21185;BME280;18176;49.502;11.754;2023-01-20T04:06:30;96345.72;;;5.54;58.34
21185;BME280;18176;49.502;11.754;2023-01-20T04:10:34;96354.59;;;5.53;58.54
21185;BME280;18176;49.502;11.754;2023-01-20T04:14:38;96363.53;;;5.52;58.69
21185;BME280;18176;49.502;11.754;2023-01-20T04:18:43;96356.28;;;5.47;58.56
21185;BME280;18176;49.502;11.754;2023-01-20T04:22:50;96366.34;;;5.50;59.06
21185;BME280;18176;49.502;11.754;2023-01-20T04:26:52;96374.41;;;5.55;59.16
21185;BME280;18176;49.502;11.754;2023-01-20T04:30:55;96376.34;;;5.66;58.89
21185;BME280;18176;49.502;11.754;2023-01-20T04:34:55;96382.00;;;5.70;58.79
21185;BME280;18176;49.502;11.754;2023-01-20T04:38:55;96390.56;;;5.59;59.22
21185;BME280;18176;49.502;11.754;2023-01-20T04:42:55;96390.28;;;5.67;59.28
21185;BME280;18176;49.502;11.754;2023-01-20T04:46:58;96291.91;;;5.01;59.17
21185;BME280;18176;49.502;11.754;2023-01-20T04:51:03;96390.97;;;5.94;58.53
21185;BME280;18176;49.502;11.754;2023-01-20T04:55:04;96347.59;;;5.47;58.58
21185;BME280;18176;49.502;11.754;2023-01-20T04:59:04;96412.59;;;5.96;58.40
21185;BME280;18176;49.502;11.754;2023-01-20T05:03:07;96407.59;;;5.81;58.47
21185;BME280;18176;49.502;11.754;2023-01-20T05:07:07;96415.69;;;5.86;58.71
21185;BME280;18176;49.502;11.754;2023-01-20T05:11:07;96416.50;;;5.80;58.94
21185;BME280;18176;49.502;11.754;2023-01-20T05:15:09;96422.38;;;5.82;58.97
21185;BME280;18176;49.502;11.754;2023-01-20T05:19:13;96385.34;;;5.52;58.92
21185;BME280;18176;49.502;11.754;2023-01-20T05:23:14;96432.38;;;5.60;59.35
21185;BME280;18176;49.502;11.754;2023-01-20T05:27:14;96414.84;;;5.54;59.52
21185;BME280;18176;49.502;11.754;2023-01-20T05:31:15;96438.47;;;5.61;59.48
21185;BME280;18176;49.502;11.754;2023-01-20T05:35:18;96431.41;;;5.55;59.57
21185;BME280;18176;49.502;11.754;2023-01-20T05:39:18;96447.41;;;5.47;59.52
21185;BME280;18176;49.502;11.754;2023-01-20T05:43:19;96460.16;;;5.50;59.76
21185;BME280;18176;49.502;11.754;2023-01-20T05:47:19;96466.59;;;5.54;59.67
21185;BME280;18176;49.502;11.754;2023-01-20T05:51:21;96460.47;;;5.60;59.69
21185;BME280;18176;49.502;11.754;2023-01-20T05:55:22;96412.56;;;5.27;59.68
21185;BME280;18176;49.502;11.754;2023-01-20T05:59:23;96476.53;;;5.83;59.41
21185;BME280;18176;49.502;11.754;2023-01-20T06:03:23;96483.59;;;5.83;59.26
21185;BME280;18176;49.502;11.754;2023-01-20T06:07:26;96476.34;;;5.91;59.31
21185;BME280;18176;49.502;11.754;2023-01-20T06:11:26;96418.06;;;5.56;59.17
21185;BME280;18176;49.502;11.754;2023-01-20T06:15:26;96490.06;;;5.93;59.27
21185;BME280;18176;49.502;11.754;2023-01-20T06:19:27;96463.06;;;5.73;59.22
21185;BME280;18176;49.502;11.754;2023-01-20T06:23:30;96503.63;;;5.90;59.68
21185;BME280;18176;49.502;11.754;2023-01-20T06:27:30;96499.22;;;5.84;59.39
21185;BME280;18176;49.502;11.754;2023-01-20T06:31:30;96506.47;;;5.89;59.29
21185;BME280;18176;49.502;11.754;2023-01-20T06:35:30;96509.94;;;5.76;59.68
21185;BME280;18176;49.502;11.754;2023-01-20T06:39:33;96501.03;;;5.77;59.61
21185;BME280;18176;49.502;11.754;2023-01-20T06:43:34;96511.38;;;5.72;59.81
21185;BME280;18176;49.502;11.754;2023-01-20T06:47:36;96513.97;;;5.79;59.61
21185;BME280;18176;49.502;11.754;2023-01-20T06:51:36;96517.63;;;5.84;59.41
21185;BME280;18176;49.502;11.754;2023-01-20T06:55:40;96515.78;;;5.78;59.35
21185;BME280;18176;49.502;11.754;2023-01-20T06:59:40;96520.09;;;6.10;59.04
21185;BME280;18176;49.502;11.754;2023-01-20T07:03:41;96519.09;;;6.11;59.17
21185;BME280;18176;49.502;11.754;2023-01-20T07:07:43;96522.59;;;5.99;59.24
21185;BME280;18176;49.502;11.754;2023-01-20T07:11:46;96537.50;;;6.11;59.45
21185;BME280;18176;49.502;11.754;2023-01-20T07:15:46;96534.00;;;6.17;59.22
21185;BME280;18176;49.502;11.754;2023-01-20T07:19:46;96552.88;;;6.14;59.58
21185;BME280;18176;49.502;11.754;2023-01-20T07:23:48;96543.63;;;6.05;59.72
21185;BME280;18176;49.502;11.754;2023-01-20T07:27:51;96556.13;;;6.10;59.75
21185;BME280;18176;49.502;11.754;2023-01-20T07:31:51;96558.63;;;5.98;60.52
21185;BME280;18176;49.502;11.754;2023-01-20T07:35:52;96573.06;;;6.20;60.42
21185;BME280;18176;49.502;11.754;2023-01-20T07:39:54;96577.81;;;6.36;60.03
21185;BME280;18176;49.502;11.754;2023-01-20T07:44:00;96525.25;;;5.92;60.02
21185;BME280;18176;49.502;11.754;2023-01-20T07:48:01;96584.53;;;6.32;59.78
21185;BME280;18176;49.502;11.754;2023-01-20T07:52:03;96577.69;;;6.25;60.31
21185;BME280;18176;49.502;11.754;2023-01-20T07:56:07;96564.41;;;6.45;59.63
21185;BME280;18176;49.502;11.754;2023-01-20T08:00:13;96609.84;;;6.65;59.19
21185;BME280;18176;49.502;11.754;2023-01-20T08:04:14;96536.00;;;6.28;59.30
21185;BME280;18176;49.502;11.754;2023-01-20T08:08:14;96620.50;;;6.76;59.14
21185;BME280;18176;49.502;11.754;2023-01-20T08:12:15;96552.00;;;6.20;59.30
21185;BME280;18176;49.502;11.754;2023-01-20T08:16:19;96625.13;;;6.81;58.84
21185;BME280;18176;49.502;11.754;2023-01-20T08:20:20;96557.53;;;6.44;58.98
21185;BME280;18176;49.502;11.754;2023-01-20T08:24:21;96556.66;;;6.50;58.96
21185;BME280;18176;49.502;11.754;2023-01-20T08:28:50;96349.78;;;5.12;58.65
21185;BME280;18176;49.502;11.754;2023-01-20T08:33:40;96518.31;;;6.35;58.40
21185;BME280;18176;49.502;11.754;2023-01-20T08:38:07;96596.88;;;6.63;58.57
21185;BME280;18176;49.502;11.754;2023-01-20T08:42:14;96654.03;;;7.12;58.29
21185;BME280;18176;49.502;11.754;2023-01-20T08:46:33;96605.81;;;6.87;58.36
21185;BME280;18176;49.502;11.754;2023-01-20T08:50:46;96652.50;;;7.29;57.93
21185;BME280;18176;49.502;11.754;2023-01-20T08:54:51;96605.81;;;6.87;57.59
21185;BME280;18176;49.502;11.754;2023-01-20T08:58:52;96594.53;;;6.80;58.13
21185;BME280;18176;49.502;11.754;2023-01-20T09:03:04;96670.66;;;7.37;57.96
21185;BME280;18176;49.502;11.754;2023-01-20T09:07:10;96599.44;;;7.01;57.74
21185;BME280;18176;49.502;11.754;2023-01-20T09:11:13;96662.66;;;7.50;57.40
21185;BME280;18176;49.502;11.754;2023-01-20T09:15:14;96677.81;;;7.55;57.49
21185;BME280;18176;49.502;11.754;2023-01-20T09:19:17;96669.81;;;7.43;57.19
21185;BME280;18176;49.502;11.754;2023-01-20T09:23:20;96664.25;;;7.51;57.06
21185;BME280;18176;49.502;11.754;2023-01-20T09:27:20;96617.94;;;7.37;56.99
21185;BME280;18176;49.502;11.754;2023-01-20T09:31:21;96635.69;;;7.48;56.28
21185;BME280;18176;49.502;11.754;2023-01-20T09:35:22;96660.25;;;7.67;56.56
21185;BME280;18176;49.502;11.754;2023-01-20T09:39:25;96706.81;;;8.16;56.19
21185;BME280;18176;49.502;11.754;2023-01-20T09:43:47;96714.50;;;8.17;55.93
21185;BME280;18176;49.502;11.754;2023-01-20T09:48:06;96723.16;;;8.31;55.73
21185;BME280;18176;49.502;11.754;2023-01-20T09:52:24;96649.88;;;7.90;55.03
21185;BME280;18176;49.502;11.754;2023-01-20T09:56:48;96671.94;;;7.96;55.20
21185;BME280;18176;49.502;11.754;2023-01-20T10:00:59;96658.72;;;7.59;55.24
21185;BME280;18176;49.502;11.754;2023-01-20T10:05:12;96673.69;;;7.84;55.31
21185;BME280;18176;49.502;11.754;2023-01-20T10:09:22;96659.00;;;7.88;55.44
21185;BME280;18176;49.502;11.754;2023-01-20T10:13:35;96603.78;;;7.74;54.97
21185;BME280;18176;49.502;11.754;2023-01-20T10:17:46;96634.41;;;8.30;54.26
21185;BME280;18176;49.502;11.754;2023-01-20T10:21:54;96648.72;;;8.52;53.81
21185;BME280;18176;49.502;11.754;2023-01-20T10:26:06;96697.38;;;8.92;53.21
21185;BME280;18176;49.502;11.754;2023-01-20T10:30:24;96655.59;;;9.12;52.33
21185;BME280;18176;49.502;11.754;2023-01-20T10:34:37;96644.72;;;9.32;51.40
21185;BME280;18176;49.502;11.754;2023-01-20T10:38:49;96723.28;;;10.01;51.41
21185;BME280;18176;49.502;11.754;2023-01-20T10:43:03;96690.72;;;9.89;50.52
21185;BME280;18176;49.502;11.754;2023-01-20T10:47:46;96636.00;;;10.29;49.02
21185;BME280;18176;49.502;11.754;2023-01-20T10:57:12;96736.22;;;11.45;46.47
21185;BME280;18176;49.502;11.754;2023-01-20T11:01:17;96631.03;;;10.73;45.74
21185;BME280;18176;49.502;11.754;2023-01-20T11:05:30;96688.06;;;10.92;45.64
21185;BME280;18176;49.502;11.754;2023-01-20T11:09:35;96726.50;;;11.34;45.96
21185;BME280;18176;49.502;11.754;2023-01-20T11:13:36;96672.38;;;11.35;46.05
21185;BME280;18176;49.502;11.754;2023-01-20T11:17:37;96657.91;;;11.59;45.44
21185;BME280;18176;49.502;11.754;2023-01-20T11:21:40;96721.91;;;12.51;44.96
21185;BME280;18176;49.502;11.754;2023-01-20T11:25:40;96729.63;;;12.74;44.83
21185;BME280;18176;49.502;11.754;2023-01-20T11:29:45;96728.75;;;12.90;43.91
21185;BME280;18176;49.502;11.754;2023-01-20T11:33:59;96663.00;;;12.59;43.03
21185;BME280;18176;49.502;11.754;2023-01-20T11:38:23;96723.69;;;12.67;43.18
21185;BME280;18176;49.502;11.754;2023-01-20T11:42:26;96721.63;;;12.31;42.90
21185;BME280;18176;49.502;11.754;2023-01-20T11:46:30;96735.13;;;11.91;43.50
21185;BME280;18176;49.502;11.754;2023-01-20T11:50:34;96674.31;;;11.23;44.73
21185;BME280;18176;49.502;11.754;2023-01-20T11:54:37;96739.16;;;11.60;44.12
21185;BME280;18176;49.502;11.754;2023-01-20T11:58:51;96741.34;;;11.35;44.68
21185;BME280;18176;49.502;11.754;2023-01-20T12:02:57;96745.34;;;10.93;44.88
21185;BME280;18176;49.502;11.754;2023-01-20T12:07:02;96742.88;;;10.23;46.11
21185;BME280;18176;49.502;11.754;2023-01-20T12:11:10;96759.31;;;10.25;46.04
21185;BME280;18176;49.502;11.754;2023-01-20T12:15:17;96756.38;;;11.01;45.66
21185;BME280;18176;49.502;11.754;2023-01-20T12:19:25;96688.88;;;10.92;44.50
21185;BME280;18176;49.502;11.754;2023-01-20T12:23:38;96699.06;;;11.45;44.31
21185;BME280;18176;49.502;11.754;2023-01-20T12:27:51;96753.72;;;11.91;42.68
21185;BME280;18176;49.502;11.754;2023-01-20T12:31:52;96735.47;;;11.33;43.63
21185;BME280;18176;49.502;11.754;2023-01-20T12:36:35;96751.13;;;12.13;43.45
21185;BME280;18176;49.502;11.754;2023-01-20T12:40:47;96744.97;;;12.89;41.73
21185;BME280;18176;49.502;11.754;2023-01-20T12:44:55;96738.94;;;13.20;41.19
21185;BME280;18176;49.502;11.754;2023-01-20T12:49:32;96764.13;;;13.12;39.73
21185;BME280;18176;49.502;11.754;2023-01-20T12:54:02;96765.69;;;12.10;42.03
21185;BME280;18176;49.502;11.754;2023-01-20T12:58:24;96769.63;;;11.74;43.02
21185;BME280;18176;49.502;11.754;2023-01-20T13:07:53;96722.72;;;9.87;46.28
21185;BME280;18176;49.502;11.754;2023-01-20T13:12:22;96778.06;;;9.89;46.79
21185;BME280;18176;49.502;11.754;2023-01-20T13:16:36;96714.53;;;9.66;47.13
21185;BME280;18176;49.502;11.754;2023-01-20T13:20:42;96781.84;;;9.81;47.80
21185;BME280;18176;49.502;11.754;2023-01-20T13:24:49;96796.06;;;9.57;48.06
21185;BME280;18176;49.502;11.754;2023-01-20T13:28:53;96790.59;;;9.41;48.61
21185;BME280;18176;49.502;11.754;2023-01-20T13:33:11;96804.22;;;9.56;48.23
21185;BME280;18176;49.502;11.754;2023-01-20T13:37:26;96783.03;;;9.56;48.15
21185;BME280;18176;49.502;11.754;2023-01-20T13:41:49;96765.63;;;9.25;48.32
21185;BME280;18176;49.502;11.754;2023-01-20T13:46:42;96808.34;;;9.52;48.41
21185;BME280;18176;49.502;11.754;2023-01-20T13:50:43;96818.84;;;9.70;48.49
21185;BME280;18176;49.502;11.754;2023-01-20T13:54:47;96805.66;;;9.10;48.80
21185;BME280;18176;49.502;11.754;2023-01-20T13:58:50;96823.00;;;9.06;49.10
21185;BME280;18176;49.502;11.754;2023-01-20T14:02:50;96765.16;;;8.32;50.35
21185;BME280;18176;49.502;11.754;2023-01-20T14:06:53;96767.41;;;8.29;49.82
21185;BME280;18176;49.502;11.754;2023-01-20T14:11:13;96826.97;;;8.61;49.88
21185;BME280;18176;49.502;11.754;2023-01-20T14:15:33;96780.13;;;8.14;50.35
21185;BME280;18176;49.502;11.754;2023-01-20T14:19:37;96840.06;;;8.56;50.24
21185;BME280;18176;49.502;11.754;2023-01-20T14:23:38;96831.81;;;8.46;50.47
21185;BME280;18176;49.502;11.754;2023-01-20T14:27:43;96843.53;;;8.50;50.40
21185;BME280;18176;49.502;11.754;2023-01-20T14:31:46;96836.56;;;8.37;50.65
21185;BME280;18176;49.502;11.754;2023-01-20T14:35:46;96827.72;;;8.25;50.96
21185;BME280;18176;49.502;11.754;2023-01-20T14:39:48;96859.63;;;8.48;50.50
21185;BME280;18176;49.502;11.754;2023-01-20T14:43:48;96848.81;;;8.32;50.96
21185;BME280;18176;49.502;11.754;2023-01-20T14:47:51;96851.69;;;8.24;50.94
21185;BME280;18176;49.502;11.754;2023-01-20T14:51:52;96874.06;;;8.21;51.04
21185;BME280;18176;49.502;11.754;2023-01-20T14:55:59;96880.69;;;8.06;51.35
21185;BME280;18176;49.502;11.754;2023-01-20T15:00:19;96814.88;;;7.61;51.32
21185;BME280;18176;49.502;11.754;2023-01-20T15:04:22;96893.47;;;7.77;51.98
21185;BME280;18176;49.502;11.754;2023-01-20T15:08:24;96906.06;;;7.75;52.30
21185;BME280;18176;49.502;11.754;2023-01-20T15:12:38;96907.91;;;7.68;52.58
21185;BME280;18176;49.502;11.754;2023-01-20T15:16:49;96917.94;;;7.53;53.21
21185;BME280;18176;49.502;11.754;2023-01-20T15:20:55;96860.38;;;7.06;53.29
21185;BME280;18176;49.502;11.754;2023-01-20T15:25:13;96862.44;;;6.91;53.72
21185;BME280;18176;49.502;11.754;2023-01-20T15:29:20;96924.94;;;7.28;53.95
21185;BME280;18176;49.502;11.754;2023-01-20T15:33:22;96933.81;;;7.40;53.85
21185;BME280;18176;49.502;11.754;2023-01-20T15:37:25;96868.81;;;6.77;53.93
21185;BME280;18176;49.502;11.754;2023-01-20T15:41:25;96929.88;;;7.18;54.02
21185;BME280;18176;49.502;11.754;2023-01-20T15:45:25;96937.63;;;6.93;54.44
21185;BME280;18176;49.502;11.754;2023-01-20T15:49:26;96951.41;;;6.89;54.77
21185;BME280;18176;49.502;11.754;2023-01-20T15:53:29;96947.38;;;6.80;55.29
21185;BME280;18176;49.502;11.754;2023-01-20T15:57:29;96951.81;;;6.79;55.34
21185;BME280;18176;49.502;11.754;2023-01-20T16:01:30;96955.88;;;6.82;55.08
21185;BME280;18176;49.502;11.754;2023-01-20T16:05:30;96889.13;;;6.37;54.94
21185;BME280;18176;49.502;11.754;2023-01-20T16:09:33;96976.16;;;6.62;55.29
21185;BME280;18176;49.502;11.754;2023-01-20T16:13:34;96977.38;;;6.46;55.36
21185;BME280;18176;49.502;11.754;2023-01-20T16:17:34;96974.13;;;6.18;56.02
21185;BME280;18176;49.502;11.754;2023-01-20T16:21:35;96970.88;;;5.96;56.43
21185;BME280;18176;49.502;11.754;2023-01-20T16:25:38;96887.38;;;5.25;56.80
21185;BME280;18176;49.502;11.754;2023-01-20T16:29:39;96985.13;;;5.74;57.03
21185;BME280;18176;49.502;11.754;2023-01-20T16:33:40;96887.41;;;4.90;57.25
21185;BME280;18176;49.502;11.754;2023-01-20T16:37:41;96980.81;;;5.47;57.91
21185;BME280;18176;49.502;11.754;2023-01-20T16:41:46;96939.81;;;5.12;58.01
21185;BME280;18176;49.502;11.754;2023-01-20T16:45:49;97004.59;;;5.39;57.96
21185;BME280;18176;49.502;11.754;2023-01-20T16:49:51;96941.72;;;4.83;58.47
21185;BME280;18176;49.502;11.754;2023-01-20T16:53:54;97003.88;;;5.11;58.83
21185;BME280;18176;49.502;11.754;2023-01-20T16:57:56;97006.09;;;5.14;58.88
21185;BME280;18176;49.502;11.754;2023-01-20T17:01:57;97003.25;;;5.09;59.23
21185;BME280;18176;49.502;11.754;2023-01-20T17:05:57;97005.53;;;4.90;59.65
21185;BME280;18176;49.502;11.754;2023-01-20T17:09:57;97022.44;;;4.81;59.58
21185;BME280;18176;49.502;11.754;2023-01-20T17:14:03;97037.13;;;4.69;60.12
21185;BME280;18176;49.502;11.754;2023-01-20T17:18:03;97035.75;;;4.52;60.15
21185;BME280;18176;49.502;11.754;2023-01-20T17:22:04;97043.88;;;4.36;60.44
21185;BME280;18176;49.502;11.754;2023-01-20T17:26:05;97047.84;;;4.25;60.62
21185;BME280;18176;49.502;11.754;2023-01-20T17:30:10;97053.03;;;4.19;61.11
21185;BME280;18176;49.502;11.754;2023-01-20T17:34:11;97039.78;;;4.27;61.34
21185;BME280;18176;49.502;11.754;2023-01-20T17:38:11;97042.75;;;4.24;61.49
21185;BME280;18176;49.502;11.754;2023-01-20T17:42:11;97048.38;;;4.42;61.07
21185;BME280;18176;49.502;11.754;2023-01-20T17:46:18;97053.81;;;4.41;61.02
21185;BME280;18176;49.502;11.754;2023-01-20T17:50:19;97066.00;;;4.27;61.41
21185;BME280;18176;49.502;11.754;2023-01-20T17:54:19;97071.59;;;4.24;62.60
21185;BME280;18176;49.502;11.754;2023-01-20T17:58:19;96989.69;;;3.80;61.48
21185;BME280;18176;49.502;11.754;2023-01-20T18:02:22;97081.72;;;4.27;61.15
21185;BME280;18176;49.502;11.754;2023-01-20T18:06:24;97087.97;;;4.26;60.59
21185;BME280;18176;49.502;11.754;2023-01-20T18:10:25;97083.22;;;4.15;60.90
21185;BME280;18176;49.502;11.754;2023-01-20T18:14:26;97084.53;;;3.90;61.70
21185;BME280;18176;49.502;11.754;2023-01-20T18:18:28;97096.13;;;3.81;61.44
21185;BME280;18176;49.502;11.754;2023-01-20T18:22:29;97097.88;;;3.74;61.28
21185;BME280;18176;49.502;11.754;2023-01-20T18:26:33;97098.25;;;3.71;61.42
21185;BME280;18176;49.502;11.754;2023-01-20T18:30:34;97099.84;;;3.57;61.58
21185;BME280;18176;49.502;11.754;2023-01-20T18:34:37;97096.19;;;3.51;61.55
21185;BME280;18176;49.502;11.754;2023-01-20T18:38:37;97094.66;;;3.42;62.09
21185;BME280;18176;49.502;11.754;2023-01-20T18:42:39;97103.13;;;3.44;61.93
21185;BME280;18176;49.502;11.754;2023-01-20T18:46:41;97096.00;;;3.38;61.84
21185;BME280;18176;49.502;11.754;2023-01-20T18:50:44;97062.31;;;3.06;62.35
21185;BME280;18176;49.502;11.754;2023-01-20T18:54:45;97106.47;;;3.38;61.99
21185;BME280;18176;49.502;11.754;2023-01-20T18:58:45;97104.75;;;3.45;62.05
21185;BME280;18176;49.502;11.754;2023-01-20T19:02:49;97031.59;;;3.00;61.75
21185;BME280;18176;49.502;11.754;2023-01-20T19:06:52;97121.28;;;3.46;61.75
21185;BME280;18176;49.502;11.754;2023-01-20T19:10:52;97064.72;;;2.93;61.81
21185;BME280;18176;49.502;11.754;2023-01-20T19:14:52;97089.38;;;3.13;61.88
21185;BME280;18176;49.502;11.754;2023-01-20T19:18:54;97118.91;;;3.36;61.80
21185;BME280;18176;49.502;11.754;2023-01-20T19:22:58;97128.88;;;3.26;62.43
21185;BME280;18176;49.502;11.754;2023-01-20T19:26:58;97060.66;;;2.76;62.43
21185;BME280;18176;49.502;11.754;2023-01-20T19:31:05;97126.53;;;3.31;62.23
21185;BME280;18176;49.502;11.754;2023-01-20T19:35:07;97126.88;;;3.28;62.61
21185;BME280;18176;49.502;11.754;2023-01-20T19:39:10;97135.72;;;3.27;62.16
21185;BME280;18176;49.502;11.754;2023-01-20T19:43:10;97143.94;;;3.24;61.94
21185;BME280;18176;49.502;11.754;2023-01-20T19:47:10;97142.03;;;3.18;62.23
21185;BME280;18176;49.502;11.754;2023-01-20T19:51:13;97139.69;;;3.23;62.03
21185;BME280;18176;49.502;11.754;2023-01-20T19:55:18;97072.09;;;2.75;62.63
21185;BME280;18176;49.502;11.754;2023-01-20T19:59:18;97145.06;;;3.07;62.87
21185;BME280;18176;49.502;11.754;2023-01-20T20:03:18;97080.38;;;2.64;62.59
21185;BME280;18176;49.502;11.754;2023-01-20T20:07:19;97157.19;;;3.08;62.42
21185;BME280;18176;49.502;11.754;2023-01-20T20:11:22;97158.94;;;2.93;62.24
21185;BME280;18176;49.502;11.754;2023-01-20T20:15:23;97163.59;;;2.60;62.36
21185;BME280;18176;49.502;11.754;2023-01-20T20:19:23;97150.47;;;2.46;62.40
21185;BME280;18176;49.502;11.754;2023-01-20T20:23:25;97106.38;;;1.89;62.85
21185;BME280;18176;49.502;11.754;2023-01-20T20:27:28;97176.72;;;2.30;63.05
21185;BME280;18176;49.502;11.754;2023-01-20T20:31:29;97108.34;;;1.87;62.63
21185;BME280;18176;49.502;11.754;2023-01-20T20:35:34;97158.53;;;2.05;62.89
21185;BME280;18176;49.502;11.754;2023-01-20T20:39:35;97188.22;;;2.21;62.88
21185;BME280;18176;49.502;11.754;2023-01-20T20:43:38;97168.75;;;2.23;63.48
21185;BME280;18176;49.502;11.754;2023-01-20T20:47:38;97131.22;;;1.85;62.64
21185;BME280;18176;49.502;11.754;2023-01-20T20:51:38;97188.88;;;2.14;63.05
21185;BME280;18176;49.502;11.754;2023-01-20T20:55:39;97188.53;;;2.18;62.83
21185;BME280;18176;49.502;11.754;2023-01-20T20:59:42;97158.34;;;1.76;62.86
21185;BME280;18176;49.502;11.754;2023-01-20T21:03:55;97187.09;;;1.76;63.16
21185;BME280;18176;49.502;11.754;2023-01-20T21:07:57;97194.97;;;1.60;63.31
21185;BME280;18176;49.502;11.754;2023-01-20T21:11:57;97179.34;;;1.44;63.92
21185;BME280;18176;49.502;11.754;2023-01-20T21:16:02;97207.06;;;1.61;63.43
21185;BME280;18176;49.502;11.754;2023-01-20T21:20:08;97120.69;;;1.08;63.02
21185;BME280;18176;49.502;11.754;2023-01-20T21:24:09;97209.84;;;1.52;63.59
21185;BME280;18176;49.502;11.754;2023-01-20T21:28:12;97207.56;;;1.49;63.57
21185;BME280;18176;49.502;11.754;2023-01-20T21:32:15;97203.97;;;1.50;63.90
21185;BME280;18176;49.502;11.754;2023-01-20T21:36:15;97187.03;;;1.37;64.60
21185;BME280;18176;49.502;11.754;2023-01-20T21:40:16;97208.00;;;1.68;64.01
21185;BME280;18176;49.502;11.754;2023-01-20T21:44:16;97218.91;;;1.80;63.65
21185;BME280;18176;49.502;11.754;2023-01-20T21:48:32;97214.16;;;1.83;63.36